sensor_id;sensor_type;location;lat;lon;timestamp;pressure;altitude;pressure_sealevel;temperature;humidity
32733;BME280;11867;51.198;11.966;2023-02-02T00:00:27;100279.97;;;3.29;92.12
32733;BME280;11867;51.198;11.966;2023-02-02T00:01:29;100299.06;;;3.39;91.71
32733;BME280;11867;51.198;11.966;2023-02-02T00:02:32;100315.13;;;3.58;91.86
32733;BME280;11867;51.198;11.966;2023-02-02T00:03:34;100305.97;;;3.47;91.25
32733;BME280;11867;51.198;11.966;2023-02-02T00:04:39;100311.34;;;3.47;91.85
32733;BME280;11867;51.198;11.966;2023-02-02T00:05:44;100305.16;;;3.47;92.25
32733;BME280;11867;51.198;11.966;2023-02-02T00:06:47;100318.75;;;3.52;92.12
32733;BME280;11867;51.198;11.966;2023-02-02T00:07:49;100296.47;;;3.33;91.97
32733;BME280;11867;51.198;11.966;2023-02-02T00:08:52;100319.78;;;3.51;92.22
32733;BME280;11867;51.198;11.966;2023-02-02T00:09:54;100316.16;;;3.45;92.28
32733;BME280;11867;51.198;11.966;2023-02-02T00:10:56;100321.91;;;3.37;92.55
32733;BME280;11867;51.198;11.966;2023-02-02T00:12:00;100297.66;;;3.25;92.81
32733;BME280;11867;51.198;11.966;2023-02-02T00:13:02;100313.34;;;3.28;92.42
32733;BME280;11867;51.198;11.966;2023-02-02T00:14:04;100315.09;;;3.34;92.57
32733;BME280;11867;51.198;11.966;2023-02-02T00:15:09;100328.72;;;3.39;92.40
32733;BME280;11867;51.198;11.966;2023-02-02T00:16:33;100321.69;;;3.50;91.63
32733;BME280;11867;51.198;11.966;2023-02-02T00:17:36;100331.06;;;3.48;91.77
32733;BME280;11867;51.198;11.966;2023-02-02T00:18:39;100319.47;;;3.35;91.74
32733;BME280;11867;51.198;11.966;2023-02-02T00:19:42;100318.28;;;3.31;92.18
32733;BME280;11867;51.198;11.966;2023-02-02T00:20:46;100320.84;;;3.26;92.01
32733;BME280;11867;51.198;11.966;2023-02-02T00:21:49;100328.81;;;3.44;92.04
32733;BME280;11867;51.198;11.966;2023-02-02T00:22:52;100331.66;;;3.50;91.70
32733;BME280;11867;51.198;11.966;2023-02-02T00:23:53;100339.25;;;3.64;91.06
32733;BME280;11867;51.198;11.966;2023-02-02T00:24:56;100347.34;;;3.76;90.32
32733;BME280;11867;51.198;11.966;2023-02-02T00:25:57;100349.34;;;3.69;90.66
32733;BME280;11867;51.198;11.966;2023-02-02T00:27:00;100330.22;;;3.59;90.26
32733;BME280;11867;51.198;11.966;2023-02-02T00:28:03;100345.84;;;3.80;90.11
32733;BME280;11867;51.198;11.966;2023-02-02T00:29:05;100342.88;;;3.82;89.76
32733;BME280;11867;51.198;11.966;2023-02-02T00:30:09;100346.28;;;3.77;90.54
32733;BME280;11867;51.198;11.966;2023-02-02T00:31:12;100340.22;;;3.70;89.89
32733;BME280;11867;51.198;11.966;2023-02-02T00:32:14;100332.44;;;3.74;89.58
32733;BME280;11867;51.198;11.966;2023-02-02T00:33:16;100343.72;;;3.71;89.65
32733;BME280;11867;51.198;11.966;2023-02-02T00:34:19;100340.56;;;3.62;90.42
32733;BME280;11867;51.198;11.966;2023-02-02T00:35:22;100337.97;;;3.67;89.76
32733;BME280;11867;51.198;11.966;2023-02-02T00:36:25;100344.31;;;3.84;89.86
32733;BME280;11867;51.198;11.966;2023-02-02T00:37:27;100346.66;;;3.93;89.17
32733;BME280;11867;51.198;11.966;2023-02-02T00:38:29;100342.50;;;4.02;89.12
32733;BME280;11867;51.198;11.966;2023-02-02T00:39:31;100320.00;;;3.96;88.42
32733;BME280;11867;51.198;11.966;2023-02-02T00:40:34;100342.59;;;4.07;88.52
32733;BME280;11867;51.198;11.966;2023-02-02T00:41:36;100339.81;;;4.02;88.11
32733;BME280;11867;51.198;11.966;2023-02-02T00:42:38;100337.22;;;4.07;88.46
32733;BME280;11867;51.198;11.966;2023-02-02T00:43:40;100350.09;;;4.29;88.33
32733;BME280;11867;51.198;11.966;2023-02-02T00:44:42;100347.53;;;4.22;87.49
32733;BME280;11867;51.198;11.966;2023-02-02T00:46:03;100341.66;;;4.13;87.57
32733;BME280;11867;51.198;11.966;2023-02-02T00:47:06;100340.38;;;4.16;87.70
32733;BME280;11867;51.198;11.966;2023-02-02T00:48:07;100331.38;;;3.98;87.85
32733;BME280;11867;51.198;11.966;2023-02-02T00:49:11;100344.50;;;4.07;88.46
32733;BME280;11867;51.198;11.966;2023-02-02T00:50:14;100343.56;;;4.01;88.36
32733;BME280;11867;51.198;11.966;2023-02-02T00:51:18;100352.72;;;4.12;87.62
32733;BME280;11867;51.198;11.966;2023-02-02T00:52:20;100341.66;;;4.13;87.44
32733;BME280;11867;51.198;11.966;2023-02-02T00:53:22;100347.63;;;4.15;87.12
32733;BME280;11867;51.198;11.966;2023-02-02T00:54:24;100347.06;;;4.13;87.22
32733;BME280;11867;51.198;11.966;2023-02-02T00:55:26;100344.63;;;4.12;87.80
32733;BME280;11867;51.198;11.966;2023-02-02T00:56:28;100332.31;;;4.04;86.89
32733;BME280;11867;51.198;11.966;2023-02-02T00:57:31;100351.06;;;4.11;87.18
32733;BME280;11867;51.198;11.966;2023-02-02T00:58:32;100346.38;;;4.06;87.30
32733;BME280;11867;51.198;11.966;2023-02-02T00:59:35;100339.78;;;4.14;87.35
32733;BME280;11867;51.198;11.966;2023-02-02T01:00:36;100344.34;;;4.13;87.29
32733;BME280;11867;51.198;11.966;2023-02-02T01:01:39;100338.06;;;4.08;87.42
32733;BME280;11867;51.198;11.966;2023-02-02T01:02:41;100345.34;;;3.95;87.62
32733;BME280;11867;51.198;11.966;2023-02-02T01:03:44;100348.00;;;4.07;88.08
32733;BME280;11867;51.198;11.966;2023-02-02T01:04:45;100336.97;;;4.09;87.87
32733;BME280;11867;51.198;11.966;2023-02-02T01:05:48;100349.50;;;4.27;86.61
32733;BME280;11867;51.198;11.966;2023-02-02T01:06:53;100345.06;;;4.09;87.12
32733;BME280;11867;51.198;11.966;2023-02-02T01:07:55;100353.53;;;4.12;87.15
32733;BME280;11867;51.198;11.966;2023-02-02T01:08:57;100329.16;;;3.95;87.15
32733;BME280;11867;51.198;11.966;2023-02-02T01:10:00;100354.91;;;4.15;86.88
32733;BME280;11867;51.198;11.966;2023-02-02T01:11:01;100359.88;;;4.06;87.36
32733;BME280;11867;51.198;11.966;2023-02-02T01:12:04;100346.38;;;4.06;86.99
32733;BME280;11867;51.198;11.966;2023-02-02T01:13:06;100355.50;;;4.17;87.49
32733;BME280;11867;51.198;11.966;2023-02-02T01:14:08;100364.25;;;4.36;86.58
32733;BME280;11867;51.198;11.966;2023-02-02T01:15:11;100367.53;;;4.38;86.00
32733;BME280;11867;51.198;11.966;2023-02-02T01:16:14;100358.53;;;4.32;86.43
32733;BME280;11867;51.198;11.966;2023-02-02T01:17:16;100368.03;;;4.23;86.71
32733;BME280;11867;51.198;11.966;2023-02-02T01:18:19;100376.00;;;4.30;86.83
32733;BME280;11867;51.198;11.966;2023-02-02T01:19:21;100361.72;;;4.17;86.51
32733;BME280;11867;51.198;11.966;2023-02-02T01:20:24;100369.72;;;4.12;86.51
32733;BME280;11867;51.198;11.966;2023-02-02T01:21:26;100360.09;;;4.16;86.89
32733;BME280;11867;51.198;11.966;2023-02-02T01:22:30;100369.78;;;4.29;87.12
32733;BME280;11867;51.198;11.966;2023-02-02T01:23:32;100368.03;;;4.23;86.83
32733;BME280;11867;51.198;11.966;2023-02-02T01:24:35;100362.91;;;4.10;86.72
32733;BME280;11867;51.198;11.966;2023-02-02T01:25:36;100367.56;;;4.26;87.22
32733;BME280;11867;51.198;11.966;2023-02-02T01:26:39;100364.25;;;4.36;86.36
32733;BME280;11867;51.198;11.966;2023-02-02T01:27:41;100354.19;;;4.19;86.87
32733;BME280;11867;51.198;11.966;2023-02-02T01:28:45;100354.84;;;3.98;87.28
32733;BME280;11867;51.198;11.966;2023-02-02T01:29:46;100346.03;;;4.02;87.21
32733;BME280;11867;51.198;11.966;2023-02-02T01:30:49;100352.13;;;4.10;86.98
32733;BME280;11867;51.198;11.966;2023-02-02T01:31:50;100349.78;;;4.01;87.61
32733;BME280;11867;51.198;11.966;2023-02-02T01:32:53;100354.16;;;3.91;87.62
32733;BME280;11867;51.198;11.966;2023-02-02T01:33:55;100360.94;;;3.93;87.72
32733;BME280;11867;51.198;11.966;2023-02-02T01:34:57;100359.78;;;3.89;87.62
32733;BME280;11867;51.198;11.966;2023-02-02T01:36:02;100357.66;;;3.91;87.48
32733;BME280;11867;51.198;11.966;2023-02-02T01:37:05;100354.34;;;4.01;87.58
32733;BME280;11867;51.198;11.966;2023-02-02T01:38:08;100342.97;;;4.11;87.10
32733;BME280;11867;51.198;11.966;2023-02-02T01:39:11;100355.69;;;3.87;87.30
32733;BME280;11867;51.198;11.966;2023-02-02T01:40:14;100358.25;;;3.93;87.60
32733;BME280;11867;51.198;11.966;2023-02-02T01:41:21;100344.41;;;3.90;87.71
32733;BME280;11867;51.198;11.966;2023-02-02T01:42:24;100356.59;;;4.04;87.74
32733;BME280;11867;51.198;11.966;2023-02-02T01:43:28;100366.66;;;3.97;87.45
32733;BME280;11867;51.198;11.966;2023-02-02T01:45:01;100362.34;;;3.96;87.10
32733;BME280;11867;51.198;11.966;2023-02-02T01:46:09;100331.84;;;3.83;87.17
32733;BME280;11867;51.198;11.966;2023-02-02T01:47:11;100356.81;;;4.02;86.86
32733;BME280;11867;51.198;11.966;2023-02-02T01:48:14;100352.34;;;3.96;86.94
32733;BME280;11867;51.198;11.966;2023-02-02T01:49:18;100359.88;;;3.94;86.37
32733;BME280;11867;51.198;11.966;2023-02-02T01:50:25;100350.50;;;3.85;87.00
32733;BME280;11867;51.198;11.966;2023-02-02T01:51:33;100362.44;;;4.01;87.41
32733;BME280;11867;51.198;11.966;2023-02-02T01:52:37;100362.34;;;3.84;87.18
32733;BME280;11867;51.198;11.966;2023-02-02T01:53:41;100372.19;;;3.90;86.88
32733;BME280;11867;51.198;11.966;2023-02-02T01:54:47;100360.84;;;3.76;87.24
32733;BME280;11867;51.198;11.966;2023-02-02T01:55:49;100337.88;;;3.62;87.53
32733;BME280;11867;51.198;11.966;2023-02-02T01:56:54;100345.69;;;3.63;87.01
32733;BME280;11867;51.198;11.966;2023-02-02T01:58:00;100343.94;;;3.69;86.11
32733;BME280;11867;51.198;11.966;2023-02-02T01:59:04;100356.03;;;3.78;86.29
32733;BME280;11867;51.198;11.966;2023-02-02T02:00:09;100363.28;;;3.90;86.58
32733;BME280;11867;51.198;11.966;2023-02-02T02:01:13;100341.72;;;3.78;85.65
32733;BME280;11867;51.198;11.966;2023-02-02T02:02:15;100356.25;;;3.77;85.70
32733;BME280;11867;51.198;11.966;2023-02-02T02:03:20;100345.47;;;3.65;85.81
32733;BME280;11867;51.198;11.966;2023-02-02T02:04:24;100342.06;;;3.70;86.31
32733;BME280;11867;51.198;11.966;2023-02-02T02:05:30;100360.59;;;3.90;86.25
32733;BME280;11867;51.198;11.966;2023-02-02T02:06:33;100356.84;;;3.79;85.57
32733;BME280;11867;51.198;11.966;2023-02-02T02:07:36;100379.69;;;4.00;85.42
32733;BME280;11867;51.198;11.966;2023-02-02T02:08:43;100371.03;;;3.98;85.01
32733;BME280;11867;51.198;11.966;2023-02-02T02:09:48;100368.53;;;3.96;84.53
32733;BME280;11867;51.198;11.966;2023-02-02T02:10:50;100381.44;;;4.06;84.17
32733;BME280;11867;51.198;11.966;2023-02-02T02:11:53;100377.09;;;4.05;84.60
32733;BME280;11867;51.198;11.966;2023-02-02T02:12:54;100370.78;;;3.99;84.47
32733;BME280;11867;51.198;11.966;2023-02-02T02:14:01;100375.25;;;3.94;84.23
32733;BME280;11867;51.198;11.966;2023-02-02T02:15:22;100362.81;;;3.69;85.26
32733;BME280;11867;51.198;11.966;2023-02-02T02:16:53;100369.88;;;3.70;85.60
32733;BME280;11867;51.198;11.966;2023-02-02T02:18:04;100352.53;;;3.66;nan
32733;BME280;11867;51.198;11.966;2023-02-02T02:19:26;100364.94;;;3.79;85.37
32733;BME280;11867;51.198;11.966;2023-02-02T02:22:26;100370.78;;;3.88;84.48
32733;BME280;11867;51.198;11.966;2023-02-02T02:24:17;100369.25;;;3.80;85.08
32733;BME280;11867;51.198;11.966;2023-02-02T02:25:57;100363.19;;;3.73;84.40
32733;BME280;11867;51.198;11.966;2023-02-02T02:27:47;100372.44;;;3.89;84.01
32733;BME280;11867;51.198;11.966;2023-02-02T02:31:01;100371.38;;;3.78;85.07
32733;BME280;11867;51.198;11.966;2023-02-02T02:32:24;100369.16;;;3.87;83.98
32733;BME280;11867;51.198;11.966;2023-02-02T02:33:33;100376.31;;;3.81;83.75
32733;BME280;11867;51.198;11.966;2023-02-02T02:34:46;100363.53;;;3.76;84.52
32733;BME280;11867;51.198;11.966;2023-02-02T02:35:56;100373.25;;;3.77;84.44
32733;BME280;11867;51.198;11.966;2023-02-02T02:37:07;100354.03;;;3.62;84.68
32733;BME280;11867;51.198;11.966;2023-02-02T02:38:19;100381.22;;;3.84;84.08
32733;BME280;11867;51.198;11.966;2023-02-02T02:39:26;100382.06;;;3.84;83.95
32733;BME280;11867;51.198;11.966;2023-02-02T02:40:35;100363.63;;;3.81;83.38
32733;BME280;11867;51.198;11.966;2023-02-02T02:41:42;100378.44;;;3.91;83.81
32733;BME280;11867;51.198;11.966;2023-02-02T02:42:48;100379.25;;;3.91;83.48
32733;BME280;11867;51.198;11.966;2023-02-02T02:43:55;100376.63;;;3.96;83.20
32733;BME280;11867;51.198;11.966;2023-02-02T02:45:01;100391.66;;;4.04;83.28
32733;BME280;11867;51.198;11.966;2023-02-02T02:46:04;100383.56;;;4.04;82.33
32733;BME280;11867;51.198;11.966;2023-02-02T02:47:08;100386.25;;;4.04;83.07
32733;BME280;11867;51.198;11.966;2023-02-02T02:48:13;100371.97;;;3.92;83.56
32733;BME280;11867;51.198;11.966;2023-02-02T02:49:15;100379.94;;;3.87;82.91
32733;BME280;11867;51.198;11.966;2023-02-02T02:50:18;100389.22;;;3.79;83.77
32733;BME280;11867;51.198;11.966;2023-02-02T02:51:44;100378.78;;;3.71;83.74
32733;BME280;11867;51.198;11.966;2023-02-02T02:52:49;100384.53;;;3.74;84.21
32733;BME280;11867;51.198;11.966;2023-02-02T02:53:53;100354.38;;;3.54;84.17
32733;BME280;11867;51.198;11.966;2023-02-02T02:54:57;100361.66;;;3.65;83.80
32733;BME280;11867;51.198;11.966;2023-02-02T02:56:07;100358.84;;;3.60;84.58
32733;BME280;11867;51.198;11.966;2023-02-02T02:57:21;100365.66;;;3.74;84.19
32733;BME280;11867;51.198;11.966;2023-02-02T02:58:34;100391.91;;;3.79;84.23
32733;BME280;11867;51.198;11.966;2023-02-02T02:59:47;100378.06;;;3.75;84.15
32733;BME280;11867;51.198;11.966;2023-02-02T03:00:59;100383.81;;;3.67;84.16
32733;BME280;11867;51.198;11.966;2023-02-02T03:02:16;100384.75;;;3.73;84.33
32733;BME280;11867;51.198;11.966;2023-02-02T03:03:28;100394.13;;;3.82;84.03
32733;BME280;11867;51.198;11.966;2023-02-02T03:04:39;100370.69;;;3.71;83.57
32733;BME280;11867;51.198;11.966;2023-02-02T03:05:51;100362.94;;;3.62;84.16
32733;BME280;11867;51.198;11.966;2023-02-02T03:06:59;100371.63;;;3.64;84.42
32733;BME280;11867;51.198;11.966;2023-02-02T03:08:07;100369.88;;;3.70;83.81
32733;BME280;11867;51.198;11.966;2023-02-02T03:09:15;100375.84;;;3.72;84.09
32733;BME280;11867;51.198;11.966;2023-02-02T03:10:23;100372.56;;;3.70;83.92
32733;BME280;11867;51.198;11.966;2023-02-02T03:11:28;100374.09;;;3.66;84.04
32733;BME280;11867;51.198;11.966;2023-02-02T03:12:29;100372.91;;;3.62;84.58
32733;BME280;11867;51.198;11.966;2023-02-02T03:13:33;100362.34;;;3.49;84.36
32733;BME280;11867;51.198;11.966;2023-02-02T03:14:35;100371.00;;;3.51;84.84
32733;BME280;11867;51.198;11.966;2023-02-02T03:15:39;100372.91;;;3.62;84.61
32733;BME280;11867;51.198;11.966;2023-02-02T03:16:41;100371.13;;;3.68;84.26
32733;BME280;11867;51.198;11.966;2023-02-02T03:17:45;100364.25;;;3.60;84.25
32733;BME280;11867;51.198;11.966;2023-02-02T03:18:49;100371.97;;;3.68;84.84
32733;BME280;11867;51.198;11.966;2023-02-02T03:19:51;100382.75;;;3.68;84.17
32733;BME280;11867;51.198;11.966;2023-02-02T03:20:53;100380.75;;;3.75;83.71
32733;BME280;11867;51.198;11.966;2023-02-02T03:21:55;100379.13;;;3.74;83.68
32733;BME280;11867;51.198;11.966;2023-02-02T03:22:57;100380.53;;;3.77;84.17
32733;BME280;11867;51.198;11.966;2023-02-02T03:24:00;100372.09;;;3.73;84.49
32733;BME280;11867;51.198;11.966;2023-02-02T03:25:02;100383.00;;;3.67;84.11
32733;BME280;11867;51.198;11.966;2023-02-02T03:26:05;100381.44;;;3.59;84.18
32733;BME280;11867;51.198;11.966;2023-02-02T03:27:08;100386.63;;;3.60;84.10
32733;BME280;11867;51.198;11.966;2023-02-02T03:28:09;100371.25;;;3.61;84.15
32733;BME280;11867;51.198;11.966;2023-02-02T03:29:12;100389.22;;;3.79;83.66
32733;BME280;11867;51.198;11.966;2023-02-02T03:30:14;100362.59;;;3.71;83.01
32733;BME280;11867;51.198;11.966;2023-02-02T03:31:17;100395.06;;;3.88;82.89
32733;BME280;11867;51.198;11.966;2023-02-02T03:32:19;100393.44;;;3.75;83.31
32733;BME280;11867;51.198;11.966;2023-02-02T03:33:22;100381.09;;;3.67;83.92
32733;BME280;11867;51.198;11.966;2023-02-02T03:34:25;100381.84;;;3.74;83.70
32733;BME280;11867;51.198;11.966;2023-02-02T03:35:28;100389.06;;;3.74;83.70
32733;BME280;11867;51.198;11.966;2023-02-02T03:36:30;100398.69;;;3.81;83.57
32733;BME280;11867;51.198;11.966;2023-02-02T03:37:32;100400.59;;;3.81;83.69
32733;BME280;11867;51.198;11.966;2023-02-02T03:38:34;100385.81;;;3.83;82.72
32733;BME280;11867;51.198;11.966;2023-02-02T03:39:37;100381.56;;;3.88;82.59
32733;BME280;11867;51.198;11.966;2023-02-02T03:40:39;100375.38;;;3.75;83.85
32733;BME280;11867;51.198;11.966;2023-02-02T03:41:41;100397.31;;;3.91;83.20
32733;BME280;11867;51.198;11.966;2023-02-02T03:42:43;100391.19;;;3.83;83.19
32733;BME280;11867;51.198;11.966;2023-02-02T03:43:45;100407.50;;;3.77;83.29
32733;BME280;11867;51.198;11.966;2023-02-02T03:44:47;100398.25;;;3.84;83.50
32733;BME280;11867;51.198;11.966;2023-02-02T03:45:54;100392.25;;;3.71;83.75
32733;BME280;11867;51.198;11.966;2023-02-02T03:46:56;100398.59;;;3.76;83.94
32733;BME280;11867;51.198;11.966;2023-02-02T03:47:58;100396.84;;;3.70;83.92
32733;BME280;11867;51.198;11.966;2023-02-02T03:49:00;100411.94;;;3.71;83.71
32733;BME280;11867;51.198;11.966;2023-02-02T03:50:05;100390.94;;;3.61;83.73
32733;BME280;11867;51.198;11.966;2023-02-02T03:51:10;100405.75;;;3.71;83.25
32733;BME280;11867;51.198;11.966;2023-02-02T03:52:13;100407.03;;;3.68;83.81
32733;BME280;11867;51.198;11.966;2023-02-02T03:53:15;100410.78;;;3.79;83.50
32733;BME280;11867;51.198;11.966;2023-02-02T03:54:17;100407.13;;;3.73;83.59
32733;BME280;11867;51.198;11.966;2023-02-02T03:55:19;100421.31;;;3.57;83.85
32733;BME280;11867;51.198;11.966;2023-02-02T03:56:22;100426.00;;;3.73;84.25
32733;BME280;11867;51.198;11.966;2023-02-02T03:57:25;100428.34;;;3.70;84.46
32733;BME280;11867;51.198;11.966;2023-02-02T03:58:26;100419.59;;;3.74;83.74
32733;BME280;11867;51.198;11.966;2023-02-02T03:59:29;100422.25;;;3.86;83.80
32733;BME280;11867;51.198;11.966;2023-02-02T04:00:31;100428.50;;;3.87;83.53
32733;BME280;11867;51.198;11.966;2023-02-02T04:01:33;100431.88;;;3.94;83.50
32733;BME280;11867;51.198;11.966;2023-02-02T04:02:35;100415.81;;;3.87;83.57
32733;BME280;11867;51.198;11.966;2023-02-02T04:03:38;100420.50;;;3.92;83.08
32733;BME280;11867;51.198;11.966;2023-02-02T04:04:39;100444.91;;;3.85;83.54
32733;BME280;11867;51.198;11.966;2023-02-02T04:05:43;100428.13;;;3.83;82.83
32733;BME280;11867;51.198;11.966;2023-02-02T04:06:45;100442.91;;;3.92;83.05
32733;BME280;11867;51.198;11.966;2023-02-02T04:07:47;100437.63;;;3.86;83.32
32733;BME280;11867;51.198;11.966;2023-02-02T04:08:49;100425.22;;;3.84;82.81
32733;BME280;11867;51.198;11.966;2023-02-02T04:09:52;100406.44;;;3.66;83.51
32733;BME280;11867;51.198;11.966;2023-02-02T04:10:54;100432.34;;;3.79;83.60
32733;BME280;11867;51.198;11.966;2023-02-02T04:11:56;100410.78;;;3.67;83.43
32733;BME280;11867;51.198;11.966;2023-02-02T04:12:58;100432.38;;;3.91;83.42
32733;BME280;11867;51.198;11.966;2023-02-02T04:14:00;100432.00;;;3.99;82.90
32733;BME280;11867;51.198;11.966;2023-02-02T04:15:03;100423.31;;;3.97;82.53
32733;BME280;11867;51.198;11.966;2023-02-02T04:16:05;100431.06;;;3.93;82.60
32733;BME280;11867;51.198;11.966;2023-02-02T04:17:07;100408.22;;;3.72;83.07
32733;BME280;11867;51.198;11.966;2023-02-02T04:18:10;100429.66;;;3.79;83.64
32733;BME280;11867;51.198;11.966;2023-02-02T04:19:11;100420.88;;;3.83;83.62
32733;BME280;11867;51.198;11.966;2023-02-02T04:20:14;100429.41;;;3.92;83.37
32733;BME280;11867;51.198;11.966;2023-02-02T04:21:17;100432.97;;;3.93;83.19
32733;BME280;11867;51.198;11.966;2023-02-02T04:22:20;100427.19;;;4.01;83.00
32733;BME280;11867;51.198;11.966;2023-02-02T04:23:21;100425.44;;;3.95;83.07
32733;BME280;11867;51.198;11.966;2023-02-02T04:24:24;100418.03;;;3.90;82.85
32733;BME280;11867;51.198;11.966;2023-02-02T04:25:26;100431.41;;;3.97;83.08
32733;BME280;11867;51.198;11.966;2023-02-02T04:26:28;100418.03;;;3.90;83.57
32733;BME280;11867;51.198;11.966;2023-02-02T04:27:31;100432.00;;;3.99;82.55
32733;BME280;11867;51.198;11.966;2023-02-02T04:28:35;100431.31;;;3.92;83.32
32733;BME280;11867;51.198;11.966;2023-02-02T04:29:37;100434.00;;;3.92;82.70
32733;BME280;11867;51.198;11.966;2023-02-02T04:30:39;100415.22;;;3.73;83.07
32733;BME280;11867;51.198;11.966;2023-02-02T04:31:41;100428.13;;;3.71;83.91
32733;BME280;11867;51.198;11.966;2023-02-02T04:32:43;100439.75;;;3.83;83.20
32733;BME280;11867;51.198;11.966;2023-02-02T04:33:46;100420.03;;;3.71;83.33
32733;BME280;11867;51.198;11.966;2023-02-02T04:34:47;100439.28;;;3.75;83.56
32733;BME280;11867;51.198;11.966;2023-02-02T04:35:50;100434.47;;;3.89;83.67
32733;BME280;11867;51.198;11.966;2023-02-02T04:36:53;100419.56;;;3.86;83.42
32733;BME280;11867;51.198;11.966;2023-02-02T04:37:56;100429.44;;;3.80;82.90
32733;BME280;11867;51.198;11.966;2023-02-02T04:38:58;100445.94;;;3.84;83.61
32733;BME280;11867;51.198;11.966;2023-02-02T04:40:00;100443.38;;;3.89;83.67
32733;BME280;11867;51.198;11.966;2023-02-02T04:41:05;100453.38;;;3.89;83.37
32733;BME280;11867;51.198;11.966;2023-02-02T04:42:08;100452.41;;;3.95;83.08
32733;BME280;11867;51.198;11.966;2023-02-02T04:43:10;100455.69;;;3.97;83.29
32733;BME280;11867;51.198;11.966;2023-02-02T04:44:14;100429.06;;;3.65;83.17
32733;BME280;11867;51.198;11.966;2023-02-02T04:45:16;100458.63;;;3.95;83.16
32733;BME280;11867;51.198;11.966;2023-02-02T04:46:18;100471.41;;;4.00;82.86
32733;BME280;11867;51.198;11.966;2023-02-02T04:47:20;100460.03;;;3.74;83.35
32733;BME280;11867;51.198;11.966;2023-02-02T04:48:22;100465.16;;;3.76;83.58
32733;BME280;11867;51.198;11.966;2023-02-02T04:49:24;100454.97;;;3.78;83.50
32733;BME280;11867;51.198;11.966;2023-02-02T04:50:27;100461.22;;;3.78;83.08
32733;BME280;11867;51.198;11.966;2023-02-02T04:51:29;100475.88;;;3.82;83.42
32733;BME280;11867;51.198;11.966;2023-02-02T04:52:33;100469.75;;;3.75;83.80
32733;BME280;11867;51.198;11.966;2023-02-02T04:53:35;100464.50;;;3.80;83.81
32733;BME280;11867;51.198;11.966;2023-02-02T04:54:38;100462.97;;;3.84;83.24
32733;BME280;11867;51.198;11.966;2023-02-02T04:55:39;100479.75;;;3.87;83.28
32733;BME280;11867;51.198;11.966;2023-02-02T04:56:42;100457.34;;;3.74;83.54
32733;BME280;11867;51.198;11.966;2023-02-02T04:57:44;100461.53;;;3.82;84.14
32733;BME280;11867;51.198;11.966;2023-02-02T04:58:46;100477.97;;;3.80;84.33
32733;BME280;11867;51.198;11.966;2023-02-02T04:59:48;100452.88;;;3.68;83.50
32733;BME280;11867;51.198;11.966;2023-02-02T05:00:50;100488.78;;;3.80;83.62
32733;BME280;11867;51.198;11.966;2023-02-02T05:01:52;100464.25;;;3.70;84.30
32733;BME280;11867;51.198;11.966;2023-02-02T05:02:54;100480.19;;;3.83;83.71
32733;BME280;11867;51.198;11.966;2023-02-02T05:03:57;100474.59;;;3.85;83.87
32733;BME280;11867;51.198;11.966;2023-02-02T05:04:59;100481.25;;;3.94;84.25
32733;BME280;11867;51.198;11.966;2023-02-02T05:06:02;100479.50;;;4.00;83.57
32733;BME280;11867;51.198;11.966;2023-02-02T05:07:04;100477.84;;;3.99;83.49
32733;BME280;11867;51.198;11.966;2023-02-02T05:08:07;100470.38;;;3.89;83.36
32733;BME280;11867;51.198;11.966;2023-02-02T05:09:12;100477.75;;;4.06;83.76
32733;BME280;11867;51.198;11.966;2023-02-02T05:10:15;100473.91;;;4.01;83.25
32733;BME280;11867;51.198;11.966;2023-02-02T05:11:19;100489.03;;;4.14;83.44
32733;BME280;11867;51.198;11.966;2023-02-02T05:12:21;100485.03;;;4.29;83.18
32733;BME280;11867;51.198;11.966;2023-02-02T05:13:24;100472.84;;;4.14;82.59
32733;BME280;11867;51.198;11.966;2023-02-02T05:14:25;100484.56;;;4.20;83.03
32733;BME280;11867;51.198;11.966;2023-02-02T05:15:28;100483.63;;;4.14;83.14
32733;BME280;11867;51.198;11.966;2023-02-02T05:16:30;100487.94;;;4.15;82.78
32733;BME280;11867;51.198;11.966;2023-02-02T05:17:32;100490.19;;;4.18;83.10
32733;BME280;11867;51.198;11.966;2023-02-02T05:18:34;100493.59;;;4.14;83.15
32733;BME280;11867;51.198;11.966;2023-02-02T05:19:36;100481.50;;;4.04;82.79
32733;BME280;11867;51.198;11.966;2023-02-02T05:20:38;100497.34;;;4.13;83.45
32733;BME280;11867;51.198;11.966;2023-02-02T05:21:41;100491.84;;;4.08;83.97
32733;BME280;11867;51.198;11.966;2023-02-02T05:22:47;100485.84;;;4.06;83.69
32733;BME280;11867;51.198;11.966;2023-02-02T05:23:51;100480.44;;;3.94;83.35
32733;BME280;11867;51.198;11.966;2023-02-02T05:24:53;100497.44;;;3.94;84.21
32733;BME280;11867;51.198;11.966;2023-02-02T05:25:55;100499.22;;;4.00;84.02
32733;BME280;11867;51.198;11.966;2023-02-02T05:26:57;100501.69;;;4.02;83.63
32733;BME280;11867;51.198;11.966;2023-02-02T05:28:01;100475.28;;;3.92;84.09
32733;BME280;11867;51.198;11.966;2023-02-02T05:29:02;100496.50;;;4.00;83.52
32733;BME280;11867;51.198;11.966;2023-02-02T05:30:08;100510.97;;;4.06;84.37
32733;BME280;11867;51.198;11.966;2023-02-02T05:31:10;100497.56;;;4.11;84.40
32733;BME280;11867;51.198;11.966;2023-02-02T05:32:13;100506.16;;;4.08;83.86
32733;BME280;11867;51.198;11.966;2023-02-02T05:33:15;100504.84;;;4.11;83.01
32733;BME280;11867;51.198;11.966;2023-02-02T05:34:19;100491.00;;;3.95;83.51
32733;BME280;11867;51.198;11.966;2023-02-02T05:35:20;100507.44;;;4.06;83.66
32733;BME280;11867;51.198;11.966;2023-02-02T05:36:24;100490.44;;;3.93;83.40
32733;BME280;11867;51.198;11.966;2023-02-02T05:37:25;100505.31;;;3.96;83.35
32733;BME280;11867;51.198;11.966;2023-02-02T05:38:28;100504.03;;;3.98;84.08
32733;BME280;11867;51.198;11.966;2023-02-02T05:39:31;100509.88;;;4.07;83.38
32733;BME280;11867;51.198;11.966;2023-02-02T05:40:33;100509.78;;;4.02;83.35